Time;durP1;ratioP1;P1;durP2;ratioP2;P2;SDS_P1;SDS_P2;PMS_P1;PMS_P2;Temp;Humidity;BMP_temperature;BMP_pressure;BME280_temperature;BME280_humidity;BME280_pressure;Samples;Min_cycle;Max_cycle;Signal;HPM_P1;HPM_P2
2024/04/15 08:22:34;;;;;;;12.93;10.13;;;;;;;;;;5930228;22;20002;-85
2024/04/15 08:25:01;;;;;;;14.40;11.38;;;;;;;;;;5285843;27;19998;-84
2024/04/15 08:27:26;;;;;;;13.05;10.50;;;;;;;;;;5315514;27;19997;-87
2024/04/15 09:00:45;;;;;;;17.73;11.97;;;;;;;;;;5283480;27;19998;-82
2024/04/15 09:03:11;;;;;;;12.90;10.90;;;;;;;;;;5284834;27;20331;-86
2024/04/15 09:05:38;;;;;;;14.57;11.45;;;;;;;;;;5284633;26;20403;-86
2024/04/15 09:08:04;;;;;;;14.98;12.02;;;;;;;;;;5315045;27;20006;-88
2024/04/15 09:10:29;;;;;;;14.57;11.50;;;;;;;;;;5284662;27;20052;-86
2024/04/15 09:12:56;;;;;;;15.00;12.30;;;;;;;;;;5313631;27;20012;-85
2024/04/15 09:15:22;;;;;;;15.10;12.27;;;;;;;;;;5314733;26;20012;-84
2024/04/15 09:17:47;;;;;;;14.02;10.15;;;;;;;;;;5314776;27;19998;-85
2024/04/15 09:20:13;;;;;;;18.23;11.98;;;;;;;;;;5284653;27;20013;-84
2024/04/15 09:22:39;;;;;;;18.40;13.40;;;;;;;;;;5284615;27;20009;-85
2024/04/15 09:25:05;;;;;;;19.23;13.98;;;;;;;;;;5315023;27;20001;-86
2024/04/15 09:27:30;;;;;;;18.85;13.73;;;;;;;;;;5314577;26;19997;-86
2024/04/15 09:29:57;;;;;;;17.80;13.05;;;;;;;;;;5314549;27;20012;-87
2024/04/15 09:32:23;;;;;;;15.70;13.38;;;;;;;;;;5314525;27;20375;-85
2024/04/15 09:34:57;;;;;;;19.67;13.38;;;;;;;;;;5284371;27;20009;-84
2024/04/15 09:37:23;;;;;;;16.35;13.40;;;;;;;;;;5314524;26;20076;-85
2024/04/15 09:39:51;;;;;;;13.32;10.60;;;;;;;;;;5314580;27;20005;-84
2024/04/15 09:42:18;;;;;;;18.85;13.10;;;;;;;;;;5284271;27;20052;-85
2024/04/15 09:44:46;;;;;;;20.48;14.10;;;;;;;;;;5314304;27;20009;-85
2024/04/15 09:47:13;;;;;;;14.93;12.53;;;;;;;;;;5314392;26;20029;-84
2024/04/15 09:49:38;;;;;;;12.50;9.82;;;;;;;;;;5314285;27;20220;-84
2024/04/15 09:52:06;;;;;;;22.85;13.50;;;;;;;;;;5314405;27;20506;-85
2024/04/15 09:54:33;;;;;;;11.95;9.77;;;;;;;;;;5314171;27;20002;-84
2024/04/15 09:57:19;;;;;;;13.23;11.50;;;;;;;;;;5313944;26;20002;-86
2024/04/15 09:59:48;;;;;;;16.30;14.07;;;;;;;;;;5283831;27;20001;-84
2024/04/15 10:02:36;;;;;;;;;;;;;;;;;;5314680;27;19998;-85
2024/04/15 10:05:08;;;;;;;15.83;12.60;;;;;;;;;;5281316;27;19927;-85
2024/04/15 10:07:35;;;;;;;20.85;14.75;;;;;;;;;;5314839;26;19993;-86
2024/04/15 10:10:01;;;;;;;17.92;15.07;;;;;;;;;;5284319;27;20045;-86
2024/04/15 10:12:28;;;;;;;17.05;13.88;;;;;;;;;;5313934;27;19998;-84
2024/04/15 10:14:53;;;;;;;21.58;15.80;;;;;;;;;;5314240;27;19993;-85
2024/04/15 10:17:19;;;;;;;19.38;14.65;;;;;;;;;;5283856;27;20008;-86
2024/04/15 10:19:49;;;;;;;20.33;14.57;;;;;;;;;;5313997;27;19998;-86
2024/04/15 10:22:16;;;;;;;21.85;16.05;;;;;;;;;;5314405;27;20029;-88
2024/04/15 10:24:42;;;;;;;20.50;16.00;;;;;;;;;;5313977;27;19998;-86
2024/04/15 10:27:11;;;;;;;18.02;16.13;;;;;;;;;;5313552;26;19998;-85
2024/04/15 10:29:37;;;;;;;;;;;;;;;;;;5314110;27;20017;-82
2024/04/15 10:32:06;;;;;;;14.93;13.43;;;;;;;;;;5313748;27;19927;-83
2024/04/15 10:34:33;;;;;;;18.60;15.30;;;;;;;;;;5313619;27;20451;-85
2024/04/15 10:37:01;;;;;;;18.67;15.38;;;;;;;;;;5313852;26;19998;-87
2024/04/15 10:39:27;;;;;;;19.63;14.88;;;;;;;;;;5313822;27;20055;-85
2024/04/15 10:41:53;;;;;;;21.65;17.25;;;;;;;;;;5313973;27;20005;-87
2024/04/15 10:44:19;;;;;;;23.05;17.88;;;;;;;;;;5283636;27;20009;-86
2024/04/15 10:46:47;;;;;;;23.55;17.60;;;;;;;;;;5313533;26;20460;-84
2024/04/15 10:49:14;;;;;;;21.40;18.13;;;;;;;;;;5313299;27;20013;-84
2024/04/15 10:51:40;;;;;;;21.90;18.05;;;;;;;;;;5313752;27;20012;-83
2024/04/15 10:54:05;;;;;;;26.83;19.00;;;;;;;;;;5313870;27;19998;-82
2024/04/15 10:56:31;;;;;;;22.40;18.95;;;;;;;;;;5313443;26;20001;-83
2024/04/15 10:58:56;;;;;;;22.08;16.60;;;;;;;;;;5313456;27;20002;-83
2024/04/15 11:01:22;;;;;;;23.33;19.30;;;;;;;;;;5279379;27;20009;-81
2024/04/15 11:03:48;;;;;;;26.92;20.88;;;;;;;;;;5279264;27;20523;-81
2024/04/15 11:06:17;;;;;;;24.52;20.25;;;;;;;;;;5279173;27;19998;-81
2024/04/15 11:08:43;;;;;;;24.27;19.33;;;;;;;;;;5279192;27;20033;-81
2024/04/15 11:11:09;;;;;;;23.92;19.85;;;;;;;;;;5279063;27;20228;-81
2024/04/15 11:13:35;;;;;;;27.27;22.50;;;;;;;;;;5279296;27;19998;-81
2024/04/15 11:16:01;;;;;;;23.88;20.88;;;;;;;;;;5279057;27;20343;-81
2024/04/15 11:18:27;;;;;;;20.33;17.63;;;;;;;;;;5279028;27;19998;-81
2024/04/15 11:21:02;;;;;;;26.02;19.50;;;;;;;;;;5278902;27;20131;-81
2024/04/15 11:23:28;;;;;;;27.50;20.95;;;;;;;;;;5277186;27;20081;-81
2024/04/15 11:25:55;;;;;;;33.83;22.35;;;;;;;;;;5277362;27;20010;-81
2024/04/15 11:28:22;;;;;;;42.58;27.98;;;;;;;;;;5278731;27;20010;-81
2024/04/15 11:30:47;;;;;;;31.70;25.48;;;;;;;;;;5278599;27;20376;-81
2024/04/15 11:33:13;;;;;;;29.00;22.70;;;;;;;;;;5278498;27;20002;-81
2024/04/15 11:35:50;;;;;;;25.77;20.55;;;;;;;;;;5247691;27;20087;-82
2024/04/15 11:38:16;;;;;;;31.83;23.65;;;;;;;;;;5278662;27;20012;-82
2024/04/15 11:40:41;;;;;;;29.00;23.98;;;;;;;;;;5278556;27;19999;-82
2024/04/15 11:43:07;;;;;;;27.25;23.10;;;;;;;;;;5278643;27;20002;-81
2024/04/15 11:45:32;;;;;;;25.10;20.77;;;;;;;;;;5277769;27;20018;-81
2024/04/15 16:12:52;;;;;;;10.40;5.80;;;;;;;;;;5263492;27;20077;-83
2024/04/15 16:15:18;;;;;;;6.88;5.13;;;;;;;;;;5242940;27;19995;-82
2024/04/15 16:17:43;;;;;;;6.13;4.20;;;;;;;;;;5244526;27;19995;-83
2024/04/15 16:20:10;;;;;;;7.40;5.13;;;;;;;;;;5242272;27;20318;-86
2024/04/15 16:22:36;;;;;;;6.00;4.43;;;;;;;;;;5246670;27;20006;-84
2024/04/15 16:25:02;;;;;;;10.95;4.95;;;;;;;;;;5247682;27;20333;-83
2024/04/15 16:27:27;;;;;;;7.82;4.80;;;;;;;;;;5247962;27;20009;-86
2024/04/15 16:29:53;;;;;;;7.18;4.70;;;;;;;;;;5247633;27;19999;-84
2024/04/15 16:32:18;;;;;;;9.70;4.47;;;;;;;;;;5246794;27;20013;-83
2024/04/15 16:34:44;;;;;;;7.13;4.90;;;;;;;;;;5247102;27;20002;-83
2024/04/15 16:37:09;;;;;;;7.53;4.93;;;;;;;;;;5246896;27;20018;-81
2024/04/15 16:39:35;;;;;;;9.45;5.93;;;;;;;;;;5245436;27;20210;-81
2024/04/15 16:42:00;;;;;;;7.40;4.70;;;;;;;;;;5247591;27;20368;-82
2024/04/15 16:44:25;;;;;;;9.35;5.82;;;;;;;;;;5247629;27;20006;-82
2024/04/15 16:46:51;;;;;;;10.98;5.82;;;;;;;;;;5247661;27;19995;-82
2024/04/15 16:49:17;;;;;;;10.45;5.22;;;;;;;;;;5247472;27;20007;-81
2024/04/15 16:51:42;;;;;;;8.57;5.13;;;;;;;;;;5247419;27;19995;-81
2024/04/15 16:54:08;;;;;;;7.15;4.97;;;;;;;;;;5248027;27;20031;-82
2024/04/15 16:56:33;;;;;;;9.20;5.20;;;;;;;;;;5247556;27;20007;-82
2024/04/15 16:58:59;;;;;;;9.07;4.70;;;;;;;;;;5247245;27;20323;-83
2024/04/15 17:01:24;;;;;;;11.90;5.22;;;;;;;;;;5247585;27;19995;-82
2024/04/15 17:03:50;;;;;;;7.55;4.75;;;;;;;;;;5247396;27;19995;-83
2024/04/15 17:06:15;;;;;;;8.02;4.85;;;;;;;;;;5247010;27;20449;-83
2024/04/15 17:08:41;;;;;;;9.38;5.03;;;;;;;;;;5247140;27;20007;-82
2024/04/15 17:11:06;;;;;;;6.13;4.68;;;;;;;;;;5247872;27;19999;-84
2024/04/15 17:13:31;;;;;;;8.98;5.32;;;;;;;;;;5265341;27;20075;-82
2024/04/15 17:15:57;;;;;;;7.60;5.70;;;;;;;;;;5280922;27;20005;-83
2024/04/15 17:18:23;;;;;;;6.68;4.80;;;;;;;;;;5280820;27;20004;-82
2024/04/15 17:20:49;;;;;;;7.65;5.65;;;;;;;;;;5280500;27;19994;-83
2024/04/15 17:23:15;;;;;;;4.80;4.30;;;;;;;;;;5280978;27;20005;-82
2024/04/15 17:25:40;;;;;;;7.18;4.60;;;;;;;;;;5280787;27;19994;-82
2024/04/15 17:28:10;;;;;;;7.95;4.97;;;;;;;;;;5280693;27;19994;-82
2024/04/15 17:30:36;;;;;;;7.70;5.47;;;;;;;;;;5280545;27;19994;-83
2024/04/15 17:33:02;;;;;;;11.10;5.90;;;;;;;;;;5279253;27;19998;-82
2024/04/15 17:35:27;;;;;;;12.93;7.20;;;;;;;;;;5280831;27;20001;-83
2024/04/15 17:37:52;;;;;;;10.18;5.95;;;;;;;;;;5250762;27;19998;-82
2024/04/15 17:40:18;;;;;;;11.73;6.32;;;;;;;;;;5280374;27;20073;-82
2024/04/15 17:42:43;;;;;;;10.88;6.22;;;;;;;;;;5280453;27;20309;-82
2024/04/15 17:45:09;;;;;;;13.35;7.55;;;;;;;;;;5280587;27;19998;-81
2024/04/15 17:47:35;;;;;;;11.70;7.70;;;;;;;;;;5280211;27;20073;-81
2024/04/15 17:50:01;;;;;;;10.60;5.90;;;;;;;;;;5250281;27;20086;-81
2024/04/15 17:52:26;;;;;;;11.52;6.38;;;;;;;;;;5280082;27;20002;-80
2024/04/15 17:54:51;;;;;;;9.45;6.18;;;;;;;;;;5280422;27;20005;-81
2024/04/15 17:57:18;;;;;;;10.75;6.80;;;;;;;;;;5280216;27;20449;-84
2024/04/15 17:59:43;;;;;;;11.80;6.57;;;;;;;;;;5280070;27;20010;-84
2024/04/15 18:02:09;;;;;;;13.32;6.75;;;;;;;;;;5279966;27;20389;-84
2024/04/15 18:04:34;;;;;;;9.00;5.80;;;;;;;;;;5279951;27;20094;-83
2024/04/15 18:07:00;;;;;;;11.48;6.53;;;;;;;;;;5250575;27;20062;-84
2024/04/15 18:09:25;;;;;;;10.55;6.13;;;;;;;;;;5280093;27;20006;-83
2024/04/15 18:11:50;;;;;;;7.75;6.32;;;;;;;;;;5280277;27;20426;-82
2024/04/15 18:14:16;;;;;;;13.25;6.35;;;;;;;;;;5280278;27;20342;-82
2024/04/15 18:16:41;;;;;;;10.57;5.75;;;;;;;;;;5280011;27;20400;-83
2024/04/15 18:19:09;;;;;;;10.30;5.55;;;;;;;;;;5279807;27;20368;-82
2024/04/15 18:21:36;;;;;;;9.88;6.13;;;;;;;;;;5279817;27;20010;-87
2024/04/15 18:24:02;;;;;;;10.30;6.22;;;;;;;;;;5280810;27;20009;-86
2024/04/15 18:26:29;;;;;;;8.93;6.90;;;;;;;;;;5280013;27;20002;-83
2024/04/15 18:28:56;;;;;;;10.13;6.78;;;;;;;;;;5249782;27;20356;-82
2024/04/15 18:31:22;;;;;;;14.38;8.20;;;;;;;;;;5280173;27;20034;-82
2024/04/15 18:33:47;;;;;;;10.70;6.15;;;;;;;;;;5250175;27;20464;-82
2024/04/15 18:36:13;;;;;;;12.30;5.80;;;;;;;;;;5249828;27;20007;-82
2024/04/15 18:38:39;;;;;;;7.05;4.97;;;;;;;;;;5279745;27;20010;-81
2024/04/15 18:41:04;;;;;;;8.73;5.53;;;;;;;;;;5249506;27;20010;-83
2024/04/15 18:43:30;;;;;;;13.00;5.68;;;;;;;;;;5249874;27;20437;-83
2024/04/15 18:45:56;;;;;;;12.00;6.60;;;;;;;;;;5279004;27;20002;-82
2024/04/15 18:48:21;;;;;;;8.45;5.13;;;;;;;;;;5279343;27;20278;-82
2024/04/15 18:50:46;;;;;;;6.88;5.10;;;;;;;;;;5279373;27;19998;-82
2024/04/15 18:53:12;;;;;;;7.15;5.65;;;;;;;;;;5279353;27;20006;-83
2024/04/15 18:55:37;;;;;;;8.32;5.82;;;;;;;;;;5279438;27;20006;-84
2024/04/15 18:58:03;;;;;;;9.35;5.95;;;;;;;;;;5279423;27;20065;-84
2024/04/15 19:00:28;;;;;;;11.55;6.05;;;;;;;;;;5279298;27;20006;-85
2024/04/15 19:02:54;;;;;;;10.75;6.00;;;;;;;;;;5279481;27;20010;-82
2024/04/15 19:05:21;;;;;;;8.30;5.80;;;;;;;;;;5279002;27;20042;-82
2024/04/15 19:07:47;;;;;;;7.72;5.20;;;;;;;;;;5279352;27;19998;-82
2024/04/15 19:10:12;;;;;;;7.32;5.82;;;;;;;;;;5279300;27;20002;-82
2024/04/15 19:12:37;;;;;;;8.38;5.88;;;;;;;;;;5279024;27;20013;-85
2024/04/15 19:15:05;;;;;;;8.18;5.10;;;;;;;;;;5279206;27;20018;-84
2024/04/15 19:17:30;;;;;;;11.50;5.82;;;;;;;;;;5279095;27;20009;-83
2024/04/15 19:19:55;;;;;;;6.55;5.03;;;;;;;;;;5279175;27;19998;-84
2024/04/15 19:22:21;;;;;;;9.50;5.68;;;;;;;;;;5279262;27;20002;-83
2024/04/15 19:24:47;;;;;;;8.38;4.93;;;;;;;;;;5279132;27;20014;-83
2024/04/15 19:27:13;;;;;;;10.15;6.25;;;;;;;;;;5249294;27;19998;-85
2024/04/15 19:29:38;;;;;;;7.60;5.30;;;;;;;;;;5278974;27;20005;-85
2024/04/15 19:32:04;;;;;;;9.75;5.20;;;;;;;;;;5278625;27;19998;-86
2024/04/15 19:34:29;;;;;;;7.13;5.20;;;;;;;;;;5279163;27;20002;-85
2024/04/15 19:36:54;;;;;;;12.93;6.00;;;;;;;;;;5278292;27;20017;-83
2024/04/15 19:39:20;;;;;;;6.80;5.43;;;;;;;;;;5278494;27;20010;-82
2024/04/15 19:41:45;;;;;;;6.65;5.15;;;;;;;;;;5249296;27;20316;-83
2024/04/15 19:44:11;;;;;;;10.48;5.82;;;;;;;;;;5279277;27;20078;-82
2024/04/15 19:46:36;;;;;;;10.07;5.55;;;;;;;;;;5279349;27;20009;-82
2024/04/15 19:49:02;;;;;;;7.13;5.43;;;;;;;;;;5278991;27;20519;-84
2024/04/15 19:51:27;;;;;;;9.75;5.47;;;;;;;;;;5278821;27;20338;-83
2024/04/15 19:53:53;;;;;;;8.90;5.80;;;;;;;;;;5279031;27;20013;-82
2024/04/15 19:56:18;;;;;;;6.65;5.32;;;;;;;;;;5279276;27;20434;-85
2024/04/15 19:58:44;;;;;;;7.80;5.72;;;;;;;;;;5281440;27;20016;-83
2024/04/15 20:01:09;;;;;;;10.35;5.70;;;;;;;;;;5281768;27;20002;-81
2024/04/15 20:03:35;;;;;;;7.07;5.22;;;;;;;;;;5281530;27;20021;-85
2024/04/15 20:06:01;;;;;;;10.07;5.45;;;;;;;;;;5282010;27;20085;-85
2024/04/15 20:08:26;;;;;;;10.65;5.18;;;;;;;;;;5281799;27;20009;-82
2024/04/15 20:10:52;;;;;;;8.30;4.85;;;;;;;;;;5281945;27;20039;-83
2024/04/15 20:13:17;;;;;;;10.82;5.35;;;;;;;;;;5252099;27;20127;-85
2024/04/15 20:15:43;;;;;;;8.40;5.18;;;;;;;;;;5252047;27;20452;-82
2024/04/15 20:18:10;;;;;;;8.30;5.18;;;;;;;;;;5282273;27;20318;-83
2024/04/15 20:20:43;;;;;;;8.18;5.45;;;;;;;;;;5251996;27;20484;-83
2024/04/15 20:23:11;;;;;;;10.80;5.47;;;;;;;;;;5281870;27;20002;-84
2024/04/15 20:25:36;;;;;;;8.07;5.47;;;;;;;;;;5281994;27;20009;-82
2024/04/15 20:28:02;;;;;;;11.30;6.05;;;;;;;;;;5281563;27;19998;-83
2024/04/15 20:30:27;;;;;;;10.38;6.25;;;;;;;;;;5281291;27;20076;-86
2024/04/15 20:32:54;;;;;;;8.27;5.55;;;;;;;;;;5281379;27;19999;-84
2024/04/15 20:35:19;;;;;;;11.85;5.63;;;;;;;;;;5281651;27;20003;-83
2024/04/15 20:37:45;;;;;;;8.13;4.57;;;;;;;;;;5281312;27;20009;-81
2024/04/15 20:40:10;;;;;;;8.45;6.10;;;;;;;;;;5281616;27;19998;-82
2024/04/15 20:42:36;;;;;;;6.15;5.53;;;;;;;;;;5251940;27;20019;-82
2024/04/15 20:45:02;;;;;;;7.75;5.20;;;;;;;;;;5281146;27;20009;-81
2024/04/15 20:47:28;;;;;;;13.45;5.75;;;;;;;;;;5281493;27;20002;-84
2024/04/15 20:49:57;;;;;;;9.77;5.43;;;;;;;;;;5281737;27;20095;-84
2024/04/15 20:52:23;;;;;;;;;;;;;;;;;;5281598;27;20009;-85
2024/04/15 20:54:49;;;;;;;7.88;6.03;;;;;;;;;;5245197;27;20260;-83
2024/04/15 20:57:15;;;;;;;9.20;6.03;;;;;;;;;;5247269;27;20513;-85
2024/04/15 20:59:40;;;;;;;12.25;5.47;;;;;;;;;;5247298;27;20017;-85
2024/04/15 21:02:06;;;;;;;7.85;5.68;;;;;;;;;;5247250;27;20437;-82
2024/04/15 21:04:32;;;;;;;13.45;6.25;;;;;;;;;;5247199;27;20013;-83
2024/04/15 21:06:57;;;;;;;9.75;5.28;;;;;;;;;;5217772;27;20453;-86
2024/04/15 21:09:23;;;;;;;8.40;5.28;;;;;;;;;;5217608;27;20003;-86
2024/04/15 21:11:48;;;;;;;7.20;5.30;;;;;;;;;;5247026;27;20006;-87
2024/04/15 21:14:14;;;;;;;14.32;5.40;;;;;;;;;;5246933;27;20014;-84
2024/04/15 21:16:39;;;;;;;10.30;5.75;;;;;;;;;;5247044;27;20003;-85
2024/04/15 21:19:05;;;;;;;15.65;6.70;;;;;;;;;;5247028;27;19999;-84
2024/04/15 21:21:30;;;;;;;6.38;5.05;;;;;;;;;;5217569;27;20014;-83
2024/04/15 21:23:56;;;;;;;8.18;4.88;;;;;;;;;;5217599;27;19999;-85
2024/04/15 21:26:21;;;;;;;6.63;5.55;;;;;;;;;;5247253;27;20436;-85
2024/04/15 21:28:47;;;;;;;13.43;6.03;;;;;;;;;;5247057;27;19999;-87
2024/04/15 21:31:12;;;;;;;5.63;4.50;;;;;;;;;;5246941;27;19999;-85
2024/04/15 21:33:38;;;;;;;8.65;5.15;;;;;;;;;;5247349;27;20081;-84
2024/04/15 21:36:07;;;;;;;7.20;5.88;;;;;;;;;;5247247;27;19999;-85
2024/04/15 21:38:32;;;;;;;7.77;4.87;;;;;;;;;;5246943;27;20010;-85
2024/04/15 21:40:57;;;;;;;10.48;5.30;;;;;;;;;;5246688;27;20230;-86
2024/04/15 21:43:23;;;;;;;8.90;6.30;;;;;;;;;;5246686;27;20446;-85
2024/04/15 21:45:49;;;;;;;7.53;4.90;;;;;;;;;;5246493;27;20003;-87
2024/04/15 21:48:15;;;;;;;5.45;4.88;;;;;;;;;;5246825;27;20010;-87
2024/04/15 21:50:40;;;;;;;8.32;5.03;;;;;;;;;;5246833;27;20043;-86
2024/04/15 21:53:06;;;;;;;10.55;5.85;;;;;;;;;;5246500;27;20003;-86
2024/04/15 21:55:31;;;;;;;10.93;5.50;;;;;;;;;;5217119;27;20003;-85
2024/04/15 21:57:57;;;;;;;6.63;5.40;;;;;;;;;;5217218;27;20003;-85
2024/04/15 22:00:23;;;;;;;10.23;5.32;;;;;;;;;;5246539;27;19999;-86
2024/04/15 22:02:48;;;;;;;12.80;5.68;;;;;;;;;;5246617;27;19999;-86
2024/04/15 22:05:14;;;;;;;9.10;5.75;;;;;;;;;;5246380;27;20095;-82
2024/04/15 22:07:39;;;;;;;7.85;5.50;;;;;;;;;;5217189;27;20010;-87
2024/04/15 22:10:05;;;;;;;9.15;5.18;;;;;;;;;;5246755;27;20043;-86
2024/04/15 22:12:31;;;;;;;11.52;5.40;;;;;;;;;;5246036;27;20031;-86
2024/04/15 22:14:56;;;;;;;8.50;5.32;;;;;;;;;;5246270;27;19999;-84
2024/04/15 22:17:24;;;;;;;11.63;5.57;;;;;;;;;;5246339;27;20015;-84
2024/04/15 22:19:49;;;;;;;6.30;5.68;;;;;;;;;;5245485;27;20107;-85
2024/04/15 22:22:15;;;;;;;10.63;5.00;;;;;;;;;;5246363;27;20039;-86
2024/04/15 22:24:40;;;;;;;9.63;5.10;;;;;;;;;;5246488;27;20438;-84
2024/04/15 22:27:06;;;;;;;5.95;4.80;;;;;;;;;;5275682;27;20029;-85
2024/04/15 22:29:31;;;;;;;9.98;5.53;;;;;;;;;;5279431;27;20017;-86
2024/04/15 22:31:56;;;;;;;8.13;6.00;;;;;;;;;;5279588;27;20081;-82
2024/04/15 22:34:22;;;;;;;8.20;6.40;;;;;;;;;;5279840;27;20002;-86
